sensor_id;sensor_type;location;lat;lon;timestamp;P1;durP1;ratioP1;P2;durP2;ratioP2
3573;SDS011;1801;51.050;6.246;2023-04-16T00:01:57;16.30;;;6.37;;
3573;SDS011;1801;51.050;6.246;2023-04-16T00:04:22;16.55;;;7.93;;
3573;SDS011;1801;51.050;6.246;2023-04-16T00:06:47;17.70;;;6.63;;
3573;SDS011;1801;51.050;6.246;2023-04-16T00:09:12;15.93;;;6.87;;
3573;SDS011;1801;51.050;6.246;2023-04-16T00:11:38;26.23;;;7.00;;
3573;SDS011;1801;51.050;6.246;2023-04-16T00:14:03;10.63;;;6.53;;
3573;SDS011;1801;51.050;6.246;2023-04-16T00:16:28;10.93;;;6.27;;
3573;SDS011;1801;51.050;6.246;2023-04-16T00:18:54;11.17;;;6.53;;
3573;SDS011;1801;51.050;6.246;2023-04-16T00:21:19;21.80;;;7.43;;
3573;SDS011;1801;51.050;6.246;2023-04-16T00:23:44;14.17;;;7.00;;
3573;SDS011;1801;51.050;6.246;2023-04-16T00:26:09;18.20;;;6.53;;
3573;SDS011;1801;51.050;6.246;2023-04-16T00:28:35;18.80;;;7.20;;
3573;SDS011;1801;51.050;6.246;2023-04-16T00:31:00;14.57;;;7.00;;
3573;SDS011;1801;51.050;6.246;2023-04-16T00:33:25;14.10;;;6.60;;
3573;SDS011;1801;51.050;6.246;2023-04-16T00:35:50;10.97;;;6.07;;
3573;SDS011;1801;51.050;6.246;2023-04-16T00:38:16;17.50;;;6.63;;
3573;SDS011;1801;51.050;6.246;2023-04-16T00:40:41;16.67;;;6.63;;
3573;SDS011;1801;51.050;6.246;2023-04-16T00:43:06;19.70;;;6.83;;
3573;SDS011;1801;51.050;6.246;2023-04-16T00:45:31;13.80;;;7.57;;
3573;SDS011;1801;51.050;6.246;2023-04-16T00:47:57;13.70;;;6.60;;
3573;SDS011;1801;51.050;6.246;2023-04-16T00:50:22;17.03;;;5.87;;
3573;SDS011;1801;51.050;6.246;2023-04-16T00:52:48;14.73;;;6.27;;
3573;SDS011;1801;51.050;6.246;2023-04-16T00:55:14;22.67;;;7.50;;
3573;SDS011;1801;51.050;6.246;2023-04-16T00:57:39;18.67;;;7.07;;
3573;SDS011;1801;51.050;6.246;2023-04-16T01:00:04;11.77;;;6.63;;
3573;SDS011;1801;51.050;6.246;2023-04-16T01:02:30;12.10;;;6.40;;
3573;SDS011;1801;51.050;6.246;2023-04-16T01:04:55;14.57;;;6.20;;
3573;SDS011;1801;51.050;6.246;2023-04-16T01:07:20;13.13;;;7.00;;
3573;SDS011;1801;51.050;6.246;2023-04-16T01:09:46;21.57;;;6.70;;
3573;SDS011;1801;51.050;6.246;2023-04-16T01:12:11;10.93;;;5.50;;
3573;SDS011;1801;51.050;6.246;2023-04-16T01:14:36;11.37;;;5.37;;
3573;SDS011;1801;51.050;6.246;2023-04-16T01:17:02;17.97;;;7.07;;
3573;SDS011;1801;51.050;6.246;2023-04-16T01:19:28;15.80;;;6.53;;
3573;SDS011;1801;51.050;6.246;2023-04-16T01:21:55;20.27;;;6.93;;
3573;SDS011;1801;51.050;6.246;2023-04-16T01:24:20;13.40;;;6.17;;
3573;SDS011;1801;51.050;6.246;2023-04-16T01:26:45;20.60;;;6.57;;
3573;SDS011;1801;51.050;6.246;2023-04-16T01:29:10;13.67;;;6.80;;
3573;SDS011;1801;51.050;6.246;2023-04-16T01:31:36;16.10;;;6.60;;
3573;SDS011;1801;51.050;6.246;2023-04-16T01:34:01;13.23;;;6.80;;
3573;SDS011;1801;51.050;6.246;2023-04-16T01:36:26;15.50;;;7.10;;
3573;SDS011;1801;51.050;6.246;2023-04-16T01:38:51;16.80;;;7.80;;
3573;SDS011;1801;51.050;6.246;2023-04-16T01:41:16;15.27;;;6.87;;
3573;SDS011;1801;51.050;6.246;2023-04-16T01:43:42;16.87;;;7.77;;
3573;SDS011;1801;51.050;6.246;2023-04-16T01:48:38;15.75;;;7.80;;
3573;SDS011;1801;51.050;6.246;2023-04-16T01:51:04;15.60;;;8.50;;
3573;SDS011;1801;51.050;6.246;2023-04-16T01:53:29;20.47;;;7.93;;
3573;SDS011;1801;51.050;6.246;2023-04-16T01:55:54;18.90;;;8.10;;
3573;SDS011;1801;51.050;6.246;2023-04-16T01:58:20;12.60;;;6.97;;
3573;SDS011;1801;51.050;6.246;2023-04-16T02:00:45;26.53;;;8.27;;
3573;SDS011;1801;51.050;6.246;2023-04-16T02:03:10;18.53;;;8.30;;
3573;SDS011;1801;51.050;6.246;2023-04-16T02:05:35;16.40;;;7.50;;
3573;SDS011;1801;51.050;6.246;2023-04-16T02:08:00;20.63;;;8.90;;
3573;SDS011;1801;51.050;6.246;2023-04-16T02:10:26;20.00;;;9.07;;
3573;SDS011;1801;51.050;6.246;2023-04-16T02:12:51;25.63;;;8.60;;
3573;SDS011;1801;51.050;6.246;2023-04-16T02:15:16;26.57;;;8.53;;
3573;SDS011;1801;51.050;6.246;2023-04-16T02:17:41;25.57;;;10.10;;
3573;SDS011;1801;51.050;6.246;2023-04-16T02:20:07;28.57;;;10.23;;
3573;SDS011;1801;51.050;6.246;2023-04-16T02:22:34;20.55;;;9.15;;
3573;SDS011;1801;51.050;6.246;2023-04-16T02:24:59;32.30;;;11.30;;
3573;SDS011;1801;51.050;6.246;2023-04-16T02:27:24;25.43;;;13.03;;
3573;SDS011;1801;51.050;6.246;2023-04-16T02:29:49;23.40;;;10.60;;
3573;SDS011;1801;51.050;6.246;2023-04-16T02:32:15;21.93;;;10.83;;
3573;SDS011;1801;51.050;6.246;2023-04-16T02:34:40;20.53;;;9.80;;
3573;SDS011;1801;51.050;6.246;2023-04-16T02:37:06;23.85;;;10.13;;
3573;SDS011;1801;51.050;6.246;2023-04-16T02:39:32;20.33;;;9.73;;
3573;SDS011;1801;51.050;6.246;2023-04-16T02:41:57;19.67;;;10.57;;
3573;SDS011;1801;51.050;6.246;2023-04-16T02:44:23;23.38;;;11.05;;
3573;SDS011;1801;51.050;6.246;2023-04-16T02:46:48;19.67;;;10.67;;
3573;SDS011;1801;51.050;6.246;2023-04-16T02:49:13;19.93;;;10.27;;
3573;SDS011;1801;51.050;6.246;2023-04-16T02:51:38;31.83;;;12.67;;
3573;SDS011;1801;51.050;6.246;2023-04-16T02:54:04;25.90;;;12.27;;
3573;SDS011;1801;51.050;6.246;2023-04-16T02:56:29;27.03;;;10.80;;
3573;SDS011;1801;51.050;6.246;2023-04-16T02:58:54;27.87;;;11.23;;
3573;SDS011;1801;51.050;6.246;2023-04-16T03:01:20;25.63;;;10.53;;
3573;SDS011;1801;51.050;6.246;2023-04-16T03:03:45;31.30;;;11.70;;
3573;SDS011;1801;51.050;6.246;2023-04-16T03:06:10;31.20;;;11.00;;
3573;SDS011;1801;51.050;6.246;2023-04-16T03:08:36;19.77;;;9.93;;
3573;SDS011;1801;51.050;6.246;2023-04-16T03:11:01;32.03;;;12.43;;
3573;SDS011;1801;51.050;6.246;2023-04-16T03:13:27;26.90;;;11.10;;
3573;SDS011;1801;51.050;6.246;2023-04-16T03:15:52;27.73;;;12.60;;
3573;SDS011;1801;51.050;6.246;2023-04-16T03:18:17;37.33;;;12.10;;
3573;SDS011;1801;51.050;6.246;2023-04-16T03:20:42;23.93;;;10.80;;
3573;SDS011;1801;51.050;6.246;2023-04-16T03:23:07;26.33;;;10.90;;
3573;SDS011;1801;51.050;6.246;2023-04-16T03:25:32;27.40;;;11.53;;
3573;SDS011;1801;51.050;6.246;2023-04-16T03:27:58;32.23;;;12.97;;
3573;SDS011;1801;51.050;6.246;2023-04-16T03:30:23;30.63;;;12.23;;
3573;SDS011;1801;51.050;6.246;2023-04-16T03:32:48;31.03;;;11.87;;
3573;SDS011;1801;51.050;6.246;2023-04-16T03:35:13;46.47;;;11.80;;
3573;SDS011;1801;51.050;6.246;2023-04-16T03:37:38;36.20;;;12.87;;
3573;SDS011;1801;51.050;6.246;2023-04-16T03:40:04;32.60;;;11.80;;
3573;SDS011;1801;51.050;6.246;2023-04-16T03:42:31;36.35;;;12.88;;
3573;SDS011;1801;51.050;6.246;2023-04-16T03:44:56;23.90;;;11.83;;
3573;SDS011;1801;51.050;6.246;2023-04-16T03:47:21;27.10;;;11.70;;
3573;SDS011;1801;51.050;6.246;2023-04-16T03:49:46;24.60;;;11.90;;
3573;SDS011;1801;51.050;6.246;2023-04-16T03:52:12;27.00;;;12.17;;
3573;SDS011;1801;51.050;6.246;2023-04-16T03:54:37;28.07;;;13.63;;
3573;SDS011;1801;51.050;6.246;2023-04-16T03:57:02;47.73;;;13.50;;
3573;SDS011;1801;51.050;6.246;2023-04-16T03:59:27;32.07;;;13.13;;
3573;SDS011;1801;51.050;6.246;2023-04-16T04:01:52;30.67;;;13.37;;
3573;SDS011;1801;51.050;6.246;2023-04-16T04:04:18;27.53;;;12.30;;
3573;SDS011;1801;51.050;6.246;2023-04-16T04:06:44;26.60;;;13.83;;
3573;SDS011;1801;51.050;6.246;2023-04-16T04:09:09;28.65;;;12.30;;
3573;SDS011;1801;51.050;6.246;2023-04-16T04:11:34;28.23;;;12.00;;
3573;SDS011;1801;51.050;6.246;2023-04-16T04:14:00;32.43;;;14.40;;
3573;SDS011;1801;51.050;6.246;2023-04-16T04:16:25;24.77;;;12.70;;
3573;SDS011;1801;51.050;6.246;2023-04-16T04:18:50;33.57;;;12.70;;
3573;SDS011;1801;51.050;6.246;2023-04-16T04:21:15;46.73;;;13.83;;
3573;SDS011;1801;51.050;6.246;2023-04-16T04:23:40;32.80;;;12.40;;
3573;SDS011;1801;51.050;6.246;2023-04-16T04:26:06;32.13;;;12.70;;
3573;SDS011;1801;51.050;6.246;2023-04-16T04:28:32;35.33;;;13.70;;
3573;SDS011;1801;51.050;6.246;2023-04-16T04:30:58;30.70;;;12.17;;
3573;SDS011;1801;51.050;6.246;2023-04-16T04:33:24;32.60;;;13.98;;
3573;SDS011;1801;51.050;6.246;2023-04-16T04:35:49;35.23;;;14.73;;
3573;SDS011;1801;51.050;6.246;2023-04-16T04:38:15;32.63;;;13.90;;
3573;SDS011;1801;51.050;6.246;2023-04-16T04:40:43;39.50;;;14.95;;
3573;SDS011;1801;51.050;6.246;2023-04-16T04:43:08;30.93;;;14.43;;
3573;SDS011;1801;51.050;6.246;2023-04-16T04:45:34;33.33;;;12.97;;
3573;SDS011;1801;51.050;6.246;2023-04-16T04:47:59;41.40;;;14.57;;
3573;SDS011;1801;51.050;6.246;2023-04-16T04:50:24;34.63;;;15.13;;
3573;SDS011;1801;51.050;6.246;2023-04-16T04:52:49;32.00;;;13.93;;
3573;SDS011;1801;51.050;6.246;2023-04-16T04:55:15;30.93;;;13.67;;
3573;SDS011;1801;51.050;6.246;2023-04-16T04:57:40;32.47;;;13.20;;
3573;SDS011;1801;51.050;6.246;2023-04-16T05:00:07;29.93;;;13.13;;
3573;SDS011;1801;51.050;6.246;2023-04-16T05:02:33;32.67;;;13.10;;
3573;SDS011;1801;51.050;6.246;2023-04-16T05:04:58;29.10;;;12.90;;
3573;SDS011;1801;51.050;6.246;2023-04-16T05:07:23;29.13;;;13.27;;
3573;SDS011;1801;51.050;6.246;2023-04-16T05:09:48;32.57;;;12.70;;
3573;SDS011;1801;51.050;6.246;2023-04-16T05:12:13;31.47;;;11.27;;
3573;SDS011;1801;51.050;6.246;2023-04-16T05:14:38;29.40;;;14.07;;
3573;SDS011;1801;51.050;6.246;2023-04-16T05:17:04;30.33;;;13.17;;
3573;SDS011;1801;51.050;6.246;2023-04-16T05:19:29;26.63;;;13.03;;
3573;SDS011;1801;51.050;6.246;2023-04-16T05:21:54;24.80;;;11.97;;
3573;SDS011;1801;51.050;6.246;2023-04-16T05:24:19;28.03;;;12.40;;
3573;SDS011;1801;51.050;6.246;2023-04-16T05:26:45;28.27;;;12.50;;
3573;SDS011;1801;51.050;6.246;2023-04-16T05:29:10;38.57;;;13.67;;
3573;SDS011;1801;51.050;6.246;2023-04-16T05:31:35;29.50;;;12.10;;
3573;SDS011;1801;51.050;6.246;2023-04-16T05:34:00;29.07;;;13.30;;
3573;SDS011;1801;51.050;6.246;2023-04-16T05:36:25;29.10;;;12.10;;
3573;SDS011;1801;51.050;6.246;2023-04-16T05:38:51;33.13;;;11.47;;
3573;SDS011;1801;51.050;6.246;2023-04-16T05:41:16;27.10;;;11.50;;
3573;SDS011;1801;51.050;6.246;2023-04-16T05:43:41;32.03;;;12.17;;
3573;SDS011;1801;51.050;6.246;2023-04-16T05:46:06;29.60;;;12.40;;
3573;SDS011;1801;51.050;6.246;2023-04-16T05:48:31;29.73;;;11.10;;
3573;SDS011;1801;51.050;6.246;2023-04-16T05:50:57;28.43;;;11.83;;
3573;SDS011;1801;51.050;6.246;2023-04-16T05:53:22;32.07;;;11.77;;
3573;SDS011;1801;51.050;6.246;2023-04-16T05:55:47;25.07;;;11.53;;
3573;SDS011;1801;51.050;6.246;2023-04-16T05:58:13;23.20;;;10.30;;
3573;SDS011;1801;51.050;6.246;2023-04-16T06:00:38;23.87;;;12.00;;
3573;SDS011;1801;51.050;6.246;2023-04-16T06:03:03;19.30;;;10.50;;
3573;SDS011;1801;51.050;6.246;2023-04-16T06:05:28;28.80;;;11.97;;
3573;SDS011;1801;51.050;6.246;2023-04-16T06:07:53;21.63;;;9.97;;
3573;SDS011;1801;51.050;6.246;2023-04-16T06:10:20;29.57;;;11.33;;
3573;SDS011;1801;51.050;6.246;2023-04-16T06:12:45;23.83;;;11.03;;
3573;SDS011;1801;51.050;6.246;2023-04-16T06:15:10;22.70;;;10.10;;
3573;SDS011;1801;51.050;6.246;2023-04-16T06:17:35;23.40;;;11.07;;
3573;SDS011;1801;51.050;6.246;2023-04-16T06:20:00;26.13;;;9.93;;
3573;SDS011;1801;51.050;6.246;2023-04-16T06:22:26;21.37;;;9.73;;
3573;SDS011;1801;51.050;6.246;2023-04-16T06:24:51;30.60;;;11.00;;
3573;SDS011;1801;51.050;6.246;2023-04-16T06:27:16;19.40;;;9.47;;
3573;SDS011;1801;51.050;6.246;2023-04-16T06:29:42;25.93;;;10.57;;
3573;SDS011;1801;51.050;6.246;2023-04-16T06:32:07;20.60;;;9.53;;
3573;SDS011;1801;51.050;6.246;2023-04-16T06:34:32;20.70;;;10.27;;
3573;SDS011;1801;51.050;6.246;2023-04-16T06:36:57;23.00;;;11.00;;
3573;SDS011;1801;51.050;6.246;2023-04-16T06:39:22;28.83;;;11.87;;
3573;SDS011;1801;51.050;6.246;2023-04-16T06:41:48;19.87;;;9.50;;
3573;SDS011;1801;51.050;6.246;2023-04-16T06:44:13;28.40;;;11.70;;
3573;SDS011;1801;51.050;6.246;2023-04-16T06:46:38;27.90;;;10.20;;
3573;SDS011;1801;51.050;6.246;2023-04-16T06:49:04;25.20;;;9.40;;
3573;SDS011;1801;51.050;6.246;2023-04-16T06:51:29;22.30;;;9.93;;
3573;SDS011;1801;51.050;6.246;2023-04-16T06:53:55;20.43;;;10.47;;
3573;SDS011;1801;51.050;6.246;2023-04-16T06:56:20;20.10;;;10.13;;
3573;SDS011;1801;51.050;6.246;2023-04-16T06:58:45;23.80;;;10.83;;
3573;SDS011;1801;51.050;6.246;2023-04-16T07:01:10;22.43;;;11.33;;
3573;SDS011;1801;51.050;6.246;2023-04-16T07:03:36;26.17;;;12.50;;
3573;SDS011;1801;51.050;6.246;2023-04-16T07:06:01;24.87;;;11.70;;
3573;SDS011;1801;51.050;6.246;2023-04-16T07:08:26;36.20;;;14.37;;
3573;SDS011;1801;51.050;6.246;2023-04-16T07:10:52;26.30;;;10.70;;
3573;SDS011;1801;51.050;6.246;2023-04-16T07:13:17;33.33;;;12.50;;
3573;SDS011;1801;51.050;6.246;2023-04-16T07:15:43;26.77;;;12.50;;
3573;SDS011;1801;51.050;6.246;2023-04-16T07:18:08;31.47;;;13.17;;
3573;SDS011;1801;51.050;6.246;2023-04-16T07:20:33;44.90;;;15.87;;
3573;SDS011;1801;51.050;6.246;2023-04-16T07:23:00;40.63;;;17.55;;
3573;SDS011;1801;51.050;6.246;2023-04-16T07:25:25;45.03;;;17.57;;
3573;SDS011;1801;51.050;6.246;2023-04-16T07:27:50;40.07;;;17.80;;
3573;SDS011;1801;51.050;6.246;2023-04-16T07:30:16;50.13;;;18.57;;
3573;SDS011;1801;51.050;6.246;2023-04-16T07:32:41;43.17;;;16.20;;
3573;SDS011;1801;51.050;6.246;2023-04-16T07:35:06;45.63;;;18.60;;
3573;SDS011;1801;51.050;6.246;2023-04-16T07:37:32;39.60;;;17.80;;
3573;SDS011;1801;51.050;6.246;2023-04-16T07:39:57;49.23;;;19.10;;
3573;SDS011;1801;51.050;6.246;2023-04-16T07:42:22;43.97;;;18.37;;
3573;SDS011;1801;51.050;6.246;2023-04-16T07:44:47;41.13;;;18.67;;
3573;SDS011;1801;51.050;6.246;2023-04-16T07:47:12;41.57;;;16.73;;
3573;SDS011;1801;51.050;6.246;2023-04-16T07:49:38;47.47;;;18.37;;
3573;SDS011;1801;51.050;6.246;2023-04-16T07:52:03;49.77;;;17.07;;
3573;SDS011;1801;51.050;6.246;2023-04-16T07:54:28;49.00;;;18.20;;
3573;SDS011;1801;51.050;6.246;2023-04-16T07:56:53;43.93;;;19.57;;
3573;SDS011;1801;51.050;6.246;2023-04-16T07:59:18;60.13;;;19.20;;
3573;SDS011;1801;51.050;6.246;2023-04-16T08:01:44;40.60;;;16.33;;
3573;SDS011;1801;51.050;6.246;2023-04-16T08:04:09;41.70;;;19.07;;
3573;SDS011;1801;51.050;6.246;2023-04-16T08:06:34;49.93;;;17.40;;
3573;SDS011;1801;51.050;6.246;2023-04-16T08:09:00;41.73;;;18.10;;
3573;SDS011;1801;51.050;6.246;2023-04-16T08:11:25;47.40;;;19.33;;
3573;SDS011;1801;51.050;6.246;2023-04-16T08:13:50;44.70;;;19.43;;
3573;SDS011;1801;51.050;6.246;2023-04-16T08:16:15;50.20;;;19.03;;
3573;SDS011;1801;51.050;6.246;2023-04-16T08:18:41;58.33;;;19.40;;
3573;SDS011;1801;51.050;6.246;2023-04-16T08:21:06;49.93;;;18.10;;
3573;SDS011;1801;51.050;6.246;2023-04-16T08:23:31;36.03;;;17.90;;
3573;SDS011;1801;51.050;6.246;2023-04-16T08:25:57;52.03;;;18.23;;
3573;SDS011;1801;51.050;6.246;2023-04-16T08:28:22;39.50;;;16.07;;
3573;SDS011;1801;51.050;6.246;2023-04-16T08:30:47;40.83;;;17.03;;
3573;SDS011;1801;51.050;6.246;2023-04-16T08:33:12;40.47;;;15.63;;
3573;SDS011;1801;51.050;6.246;2023-04-16T08:35:38;46.67;;;18.00;;
3573;SDS011;1801;51.050;6.246;2023-04-16T08:38:03;39.87;;;17.23;;
3573;SDS011;1801;51.050;6.246;2023-04-16T08:40:28;34.37;;;15.63;;
3573;SDS011;1801;51.050;6.246;2023-04-16T08:42:55;41.03;;;17.00;;
3573;SDS011;1801;51.050;6.246;2023-04-16T08:45:22;46.70;;;17.67;;
3573;SDS011;1801;51.050;6.246;2023-04-16T08:47:50;45.93;;;18.40;;
3573;SDS011;1801;51.050;6.246;2023-04-16T08:50:16;38.73;;;17.60;;
3573;SDS011;1801;51.050;6.246;2023-04-16T08:52:48;33.07;;;14.77;;
3573;SDS011;1801;51.050;6.246;2023-04-16T08:55:14;41.87;;;15.10;;
3573;SDS011;1801;51.050;6.246;2023-04-16T08:57:43;40.97;;;15.70;;
3573;SDS011;1801;51.050;6.246;2023-04-16T09:00:11;45.43;;;15.50;;
3573;SDS011;1801;51.050;6.246;2023-04-16T09:02:37;34.63;;;15.80;;
3573;SDS011;1801;51.050;6.246;2023-04-16T09:05:04;51.17;;;16.87;;
3573;SDS011;1801;51.050;6.246;2023-04-16T09:07:30;41.60;;;16.33;;
3573;SDS011;1801;51.050;6.246;2023-04-16T09:09:56;35.83;;;16.40;;
3573;SDS011;1801;51.050;6.246;2023-04-16T09:12:23;42.23;;;16.93;;
3573;SDS011;1801;51.050;6.246;2023-04-16T09:14:49;38.23;;;15.60;;
3573;SDS011;1801;51.050;6.246;2023-04-16T09:17:15;41.27;;;15.37;;
3573;SDS011;1801;51.050;6.246;2023-04-16T09:19:40;44.17;;;15.90;;
3573;SDS011;1801;51.050;6.246;2023-04-16T09:22:06;34.77;;;14.27;;
3573;SDS011;1801;51.050;6.246;2023-04-16T09:24:31;47.07;;;16.43;;
3573;SDS011;1801;51.050;6.246;2023-04-16T09:26:56;37.80;;;14.97;;
3573;SDS011;1801;51.050;6.246;2023-04-16T09:29:35;31.73;;;13.90;;
3573;SDS011;1801;51.050;6.246;2023-04-16T09:32:01;35.83;;;15.10;;
3573;SDS011;1801;51.050;6.246;2023-04-16T09:34:27;31.20;;;14.00;;
3573;SDS011;1801;51.050;6.246;2023-04-16T09:36:52;33.83;;;14.50;;
3573;SDS011;1801;51.050;6.246;2023-04-16T09:39:17;30.40;;;14.57;;
3573;SDS011;1801;51.050;6.246;2023-04-16T09:41:43;33.03;;;13.67;;
3573;SDS011;1801;51.050;6.246;2023-04-16T09:44:11;26.90;;;12.83;;
3573;SDS011;1801;51.050;6.246;2023-04-16T09:46:39;32.87;;;15.40;;
3573;SDS011;1801;51.050;6.246;2023-04-16T09:49:08;32.63;;;14.03;;
3573;SDS011;1801;51.050;6.246;2023-04-16T09:51:37;34.00;;;14.80;;
3573;SDS011;1801;51.050;6.246;2023-04-16T09:54:05;28.93;;;14.20;;
3573;SDS011;1801;51.050;6.246;2023-04-16T09:56:30;35.13;;;14.27;;
3573;SDS011;1801;51.050;6.246;2023-04-16T09:58:56;34.00;;;15.23;;
3573;SDS011;1801;51.050;6.246;2023-04-16T10:01:23;30.03;;;14.67;;
3573;SDS011;1801;51.050;6.246;2023-04-16T10:03:49;31.27;;;14.47;;
3573;SDS011;1801;51.050;6.246;2023-04-16T10:06:18;31.83;;;15.80;;
3573;SDS011;1801;51.050;6.246;2023-04-16T10:08:47;41.37;;;18.10;;
3573;SDS011;1801;51.050;6.246;2023-04-16T10:11:12;39.13;;;16.80;;
3573;SDS011;1801;51.050;6.246;2023-04-16T10:13:38;45.83;;;16.63;;
3573;SDS011;1801;51.050;6.246;2023-04-16T10:16:03;43.17;;;17.97;;
3573;SDS011;1801;51.050;6.246;2023-04-16T10:18:28;43.07;;;18.47;;
3573;SDS011;1801;51.050;6.246;2023-04-16T10:20:54;38.97;;;16.13;;
3573;SDS011;1801;51.050;6.246;2023-04-16T10:23:20;45.60;;;16.30;;
3573;SDS011;1801;51.050;6.246;2023-04-16T10:25:46;43.80;;;19.73;;
3573;SDS011;1801;51.050;6.246;2023-04-16T10:28:12;49.43;;;19.50;;
3573;SDS011;1801;51.050;6.246;2023-04-16T10:30:38;41.97;;;16.97;;
3573;SDS011;1801;51.050;6.246;2023-04-16T10:33:03;41.23;;;18.50;;
3573;SDS011;1801;51.050;6.246;2023-04-16T10:35:29;42.80;;;18.13;;
3573;SDS011;1801;51.050;6.246;2023-04-16T10:38:07;40.27;;;17.70;;
3573;SDS011;1801;51.050;6.246;2023-04-16T10:40:42;36.40;;;17.13;;
3573;SDS011;1801;51.050;6.246;2023-04-16T10:43:08;37.20;;;17.13;;
3573;SDS011;1801;51.050;6.246;2023-04-16T10:45:41;40.83;;;17.13;;
3573;SDS011;1801;51.050;6.246;2023-04-16T10:48:06;36.03;;;17.03;;
3573;SDS011;1801;51.050;6.246;2023-04-16T10:50:36;43.67;;;17.87;;
3573;SDS011;1801;51.050;6.246;2023-04-16T10:58:30;35.30;;;17.20;;
3573;SDS011;1801;51.050;6.246;2023-04-16T11:00:59;43.47;;;17.03;;
3573;SDS011;1801;51.050;6.246;2023-04-16T11:03:28;37.30;;;16.70;;
3573;SDS011;1801;51.050;6.246;2023-04-16T11:05:54;41.03;;;16.40;;
3573;SDS011;1801;51.050;6.246;2023-04-16T11:08:33;32.80;;;14.60;;
3573;SDS011;1801;51.050;6.246;2023-04-16T11:10:58;32.70;;;16.97;;
3573;SDS011;1801;51.050;6.246;2023-04-16T11:13:24;25.63;;;13.00;;
3573;SDS011;1801;51.050;6.246;2023-04-16T11:15:50;27.83;;;15.30;;
3573;SDS011;1801;51.050;6.246;2023-04-16T11:18:18;29.93;;;14.63;;
3573;SDS011;1801;51.050;6.246;2023-04-16T11:20:43;32.90;;;16.23;;
3573;SDS011;1801;51.050;6.246;2023-04-16T11:23:09;29.67;;;15.37;;
3573;SDS011;1801;51.050;6.246;2023-04-16T11:25:34;26.67;;;14.37;;
3573;SDS011;1801;51.050;6.246;2023-04-16T11:28:00;22.07;;;12.60;;
3573;SDS011;1801;51.050;6.246;2023-04-16T11:30:33;36.83;;;14.23;;
3573;SDS011;1801;51.050;6.246;2023-04-16T11:33:05;33.87;;;15.00;;
3573;SDS011;1801;51.050;6.246;2023-04-16T11:35:31;31.20;;;14.13;;
3573;SDS011;1801;51.050;6.246;2023-04-16T11:37:57;26.50;;;14.80;;
3573;SDS011;1801;51.050;6.246;2023-04-16T11:40:22;32.13;;;14.43;;
3573;SDS011;1801;51.050;6.246;2023-04-16T11:42:47;31.27;;;15.03;;
3573;SDS011;1801;51.050;6.246;2023-04-16T11:45:13;27.50;;;13.07;;
3573;SDS011;1801;51.050;6.246;2023-04-16T11:47:42;23.23;;;11.73;;
3573;SDS011;1801;51.050;6.246;2023-04-16T11:50:19;23.87;;;12.27;;
3573;SDS011;1801;51.050;6.246;2023-04-16T11:52:44;23.13;;;13.67;;
3573;SDS011;1801;51.050;6.246;2023-04-16T11:55:09;19.47;;;11.60;;
3573;SDS011;1801;51.050;6.246;2023-04-16T11:57:34;25.13;;;13.23;;
3573;SDS011;1801;51.050;6.246;2023-04-16T12:00:00;23.67;;;12.20;;
3573;SDS011;1801;51.050;6.246;2023-04-16T12:05:01;23.53;;;12.90;;
3573;SDS011;1801;51.050;6.246;2023-04-16T12:07:26;24.73;;;12.20;;
3573;SDS011;1801;51.050;6.246;2023-04-16T12:10:03;23.60;;;12.07;;
3573;SDS011;1801;51.050;6.246;2023-04-16T12:12:29;24.70;;;12.07;;
3573;SDS011;1801;51.050;6.246;2023-04-16T12:14:55;23.27;;;12.60;;
3573;SDS011;1801;51.050;6.246;2023-04-16T12:17:21;30.53;;;13.27;;
3573;SDS011;1801;51.050;6.246;2023-04-16T12:19:47;30.00;;;13.30;;
3573;SDS011;1801;51.050;6.246;2023-04-16T12:22:12;24.77;;;13.00;;
3573;SDS011;1801;51.050;6.246;2023-04-16T12:24:38;24.30;;;12.43;;
3573;SDS011;1801;51.050;6.246;2023-04-16T12:27:03;23.73;;;12.00;;
3573;SDS011;1801;51.050;6.246;2023-04-16T12:29:30;26.27;;;12.93;;
3573;SDS011;1801;51.050;6.246;2023-04-16T12:31:56;25.30;;;12.70;;
3573;SDS011;1801;51.050;6.246;2023-04-16T12:34:21;28.87;;;13.67;;
3573;SDS011;1801;51.050;6.246;2023-04-16T12:36:47;18.93;;;11.37;;
3573;SDS011;1801;51.050;6.246;2023-04-16T12:39:14;21.87;;;11.87;;
3573;SDS011;1801;51.050;6.246;2023-04-16T12:41:40;29.07;;;13.17;;
3573;SDS011;1801;51.050;6.246;2023-04-16T12:44:07;25.60;;;14.20;;
3573;SDS011;1801;51.050;6.246;2023-04-16T12:46:39;23.60;;;12.60;;
3573;SDS011;1801;51.050;6.246;2023-04-16T12:49:04;33.47;;;14.20;;
3573;SDS011;1801;51.050;6.246;2023-04-16T12:51:30;29.67;;;14.30;;
3573;SDS011;1801;51.050;6.246;2023-04-16T12:53:55;25.87;;;14.57;;
3573;SDS011;1801;51.050;6.246;2023-04-16T12:56:20;35.90;;;14.80;;
3573;SDS011;1801;51.050;6.246;2023-04-16T12:58:46;31.83;;;14.77;;
3573;SDS011;1801;51.050;6.246;2023-04-16T13:01:14;36.17;;;17.50;;
3573;SDS011;1801;51.050;6.246;2023-04-16T13:03:39;37.60;;;18.20;;
3573;SDS011;1801;51.050;6.246;2023-04-16T13:06:05;39.60;;;19.63;;
3573;SDS011;1801;51.050;6.246;2023-04-16T13:08:30;31.70;;;15.17;;
3573;SDS011;1801;51.050;6.246;2023-04-16T13:10:55;35.67;;;16.60;;
3573;SDS011;1801;51.050;6.246;2023-04-16T13:13:20;32.57;;;14.97;;
3573;SDS011;1801;51.050;6.246;2023-04-16T13:15:45;35.97;;;17.40;;
3573;SDS011;1801;51.050;6.246;2023-04-16T13:18:11;30.03;;;15.00;;
3573;SDS011;1801;51.050;6.246;2023-04-16T13:20:36;33.27;;;15.37;;
3573;SDS011;1801;51.050;6.246;2023-04-16T13:23:01;34.80;;;17.00;;
3573;SDS011;1801;51.050;6.246;2023-04-16T13:25:29;35.17;;;16.90;;
3573;SDS011;1801;51.050;6.246;2023-04-16T13:27:54;30.67;;;14.73;;
3573;SDS011;1801;51.050;6.246;2023-04-16T13:30:20;33.40;;;13.67;;
3573;SDS011;1801;51.050;6.246;2023-04-16T13:32:45;34.60;;;17.10;;
3573;SDS011;1801;51.050;6.246;2023-04-16T13:35:10;32.50;;;18.30;;
3573;SDS011;1801;51.050;6.246;2023-04-16T13:37:36;38.93;;;17.30;;
3573;SDS011;1801;51.050;6.246;2023-04-16T13:40:02;37.13;;;18.00;;
3573;SDS011;1801;51.050;6.246;2023-04-16T13:42:27;40.07;;;17.40;;
3573;SDS011;1801;51.050;6.246;2023-04-16T13:44:52;37.37;;;17.37;;
3573;SDS011;1801;51.050;6.246;2023-04-16T13:47:19;49.13;;;26.10;;
3573;SDS011;1801;51.050;6.246;2023-04-16T13:49:44;37.30;;;19.17;;
3573;SDS011;1801;51.050;6.246;2023-04-16T13:52:09;32.10;;;18.23;;
3573;SDS011;1801;51.050;6.246;2023-04-16T13:54:35;38.90;;;16.60;;
3573;SDS011;1801;51.050;6.246;2023-04-16T13:57:00;38.00;;;17.20;;
3573;SDS011;1801;51.050;6.246;2023-04-16T13:59:25;55.50;;;25.67;;
3573;SDS011;1801;51.050;6.246;2023-04-16T14:01:50;42.97;;;20.37;;
3573;SDS011;1801;51.050;6.246;2023-04-16T14:04:16;45.03;;;20.07;;
3573;SDS011;1801;51.050;6.246;2023-04-16T14:06:41;64.90;;;26.90;;
3573;SDS011;1801;51.050;6.246;2023-04-16T14:09:06;57.10;;;24.57;;
3573;SDS011;1801;51.050;6.246;2023-04-16T14:11:33;51.63;;;22.83;;
3573;SDS011;1801;51.050;6.246;2023-04-16T14:13:58;56.57;;;25.53;;
3573;SDS011;1801;51.050;6.246;2023-04-16T14:16:23;61.70;;;23.70;;
3573;SDS011;1801;51.050;6.246;2023-04-16T14:18:49;37.63;;;17.40;;
3573;SDS011;1801;51.050;6.246;2023-04-16T14:21:15;42.67;;;19.10;;
3573;SDS011;1801;51.050;6.246;2023-04-16T14:23:41;51.93;;;23.83;;
3573;SDS011;1801;51.050;6.246;2023-04-16T14:26:06;40.43;;;18.60;;
3573;SDS011;1801;51.050;6.246;2023-04-16T14:28:31;41.43;;;19.70;;
3573;SDS011;1801;51.050;6.246;2023-04-16T14:30:56;50.80;;;24.97;;
3573;SDS011;1801;51.050;6.246;2023-04-16T14:33:21;49.37;;;23.87;;
3573;SDS011;1801;51.050;6.246;2023-04-16T14:35:47;43.47;;;20.80;;
3573;SDS011;1801;51.050;6.246;2023-04-16T14:38:14;44.93;;;24.97;;
3573;SDS011;1801;51.050;6.246;2023-04-16T14:40:39;43.60;;;19.23;;
3573;SDS011;1801;51.050;6.246;2023-04-16T14:43:05;44.33;;;22.67;;
3573;SDS011;1801;51.050;6.246;2023-04-16T14:45:30;33.77;;;19.60;;
3573;SDS011;1801;51.050;6.246;2023-04-16T14:47:56;42.43;;;19.50;;
3573;SDS011;1801;51.050;6.246;2023-04-16T14:50:21;40.90;;;19.83;;
3573;SDS011;1801;51.050;6.246;2023-04-16T14:52:46;34.23;;;18.93;;